Time;durP1;ratioP1;P1;durP2;ratioP2;P2;SDS_P1;SDS_P2;PMS_P1;PMS_P2;Temp;Humidity;BMP_temperature;BMP_pressure;BME280_temperature;BME280_humidity;BME280_pressure;Samples;Min_cycle;Max_cycle;Signal;HPM_P1;HPM_P2
2022/07/23 00:00:09;;;;;;;0.10;0.10;;;;;;;22.59;54.23;101403.97;5125585;28;20039;-37
2022/07/23 00:02:35;;;;;;;0.10;0.10;;;;;;;22.60;54.28;101399.25;5122940;28;20047;-37
2022/07/23 00:05:01;;;;;;;0.10;0.10;;;;;;;22.60;54.26;101391.75;5125509;27;20040;-39
2022/07/23 00:07:27;;;;;;;0.10;0.10;;;;;;;22.59;54.48;101392.88;5107617;28;20089;-37
2022/07/23 00:09:53;;;;;;;0.10;0.10;;;;;;;22.60;54.42;101400.06;5130010;28;20055;-39
2022/07/23 00:12:18;;;;;;;0.10;0.10;;;;;;;22.59;54.32;101403.97;5130091;28;20053;-39
2022/07/23 00:14:44;;;;;;;0.10;0.10;;;;;;;22.60;54.26;101413.13;5123673;27;20501;-39
2022/07/23 00:17:10;;;;;;;0.10;0.10;;;;;;;22.59;54.57;101412.31;5122507;27;20435;-37
2022/07/23 00:19:36;;;;;;;0.10;0.10;;;;;;;22.59;54.43;101408.69;5125908;28;20057;-39
2022/07/23 00:22:01;;;;;;;0.10;0.10;;;;;;;22.60;54.40;101407.59;5128042;28;20088;-37
2022/07/23 00:24:27;;;;;;;0.10;0.10;;;;;;;22.60;54.29;101402.03;5129260;28;20047;-39
2022/07/23 00:26:53;;;;;;;0.10;0.10;;;;;;;22.59;54.59;101403.97;5130014;28;20035;-34
2022/07/23 00:29:18;;;;;;;0.10;0.10;;;;;;;22.59;54.48;101390.09;5127739;28;20075;-37
2022/07/23 00:31:44;;;;;;;0.10;0.10;;;;;;;22.59;54.34;101389.28;5127144;28;20047;-36
2022/07/23 00:34:13;;;;;;;0.10;0.10;;;;;;;22.60;54.19;101388.16;5126338;28;20394;-38
2022/07/23 00:36:39;;;;;;;0.10;0.10;;;;;;;22.59;54.18;101387.31;5124719;28;20484;-37
2022/07/23 00:39:05;;;;;;;0.10;0.10;;;;;;;22.60;54.35;101393.69;5130992;28;20080;-37
2022/07/23 00:41:30;;;;;;;0.10;0.10;;;;;;;22.60;54.32;101388.16;5127933;28;20043;-38
2022/07/23 00:44:14;;;;;;;0.10;0.10;;;;;;;22.60;54.42;101380.63;5127238;28;20462;-37
2022/07/23 00:46:45;;;;;;;0.10;0.10;;;;;;;22.59;54.38;101390.09;5126700;28;20539;-37
2022/07/23 00:49:10;;;;;;;0.10;0.10;;;;;;;22.60;54.41;101399.25;5129400;28;20093;-39
2022/07/23 00:51:36;;;;;;;0.10;0.10;;;;;;;22.59;54.34;101406.75;5130550;28;20057;-37
2022/07/23 00:54:02;;;;;;;0.10;0.10;;;;;;;22.60;54.23;101402.84;5131060;28;20095;-37
2022/07/23 00:56:28;;;;;;;0.10;0.10;;;;;;;22.60;54.23;101405.63;5127955;28;20046;-37
2022/07/23 00:58:53;;;;;;;0.10;0.10;;;;;;;22.60;54.36;101402.03;5129629;28;20047;-38
2022/07/23 01:01:19;;;;;;;0.10;0.10;;;;;;;22.60;54.17;101407.59;5130813;28;20047;-38
2022/07/23 01:03:45;;;;;;;0.10;0.10;;;;;;;22.60;54.32;101413.13;5130179;28;20529;-37
2022/07/23 01:06:10;;;;;;;0.10;0.10;;;;;;;22.59;54.49;101409.53;5128745;28;20040;-37
2022/07/23 01:08:36;;;;;;;0.10;0.10;;;;;;;22.59;54.25;101417.84;5129253;28;20046;-39
2022/07/23 01:11:02;;;;;;;0.10;0.10;;;;;;;22.59;54.32;101408.69;5125716;28;21257;-37
2022/07/23 01:13:27;;;;;;;0.10;0.10;;;;;;;22.59;54.23;101406.75;5124329;28;20043;-37
2022/07/23 01:15:53;;;;;;;0.10;0.10;;;;;;;22.59;54.34;101409.53;5127572;27;20095;-37
2022/07/23 01:18:19;;;;;;;0.10;0.10;;;;;;;22.59;54.27;101406.75;5130881;28;20122;-35
2022/07/23 01:20:44;;;;;;;0.10;0.10;;;;;;;22.59;54.34;101414.25;5125690;28;20051;-39
2022/07/23 01:23:10;;;;;;;0.10;0.10;;;;;;;22.60;54.36;101410.34;5130063;28;20563;-39
2022/07/23 01:25:36;;;;;;;0.10;0.10;;;;;;;22.59;54.34;101417.84;5128989;28;20051;-39
2022/07/23 01:28:01;;;;;;;0.10;0.10;;;;;;;22.60;54.44;101410.34;5128706;28;20050;-39
2022/07/23 01:30:27;;;;;;;0.10;0.10;;;;;;;22.59;54.40;101409.53;5126913;28;20054;-38
2022/07/23 01:32:52;;;;;;;0.10;0.10;;;;;;;22.59;54.34;101406.75;5110605;28;20054;-37
2022/07/23 01:35:18;;;;;;;0.20;0.20;;;;;;;22.59;54.37;101412.31;5125538;28;20058;-38
2022/07/23 01:37:44;;;;;;;0.10;0.10;;;;;;;22.57;54.14;101397.88;5125998;28;20244;-37
2022/07/23 01:40:10;;;;;;;0.10;0.10;;;;;;;22.59;54.32;101403.97;5127792;28;20062;-39
2022/07/23 01:42:36;;;;;;;0.10;0.10;;;;;;;22.58;54.36;101399.53;5126236;27;20192;-37
2022/07/23 01:45:04;;;;;;;0.10;0.10;;;;;;;22.58;54.41;101393.97;5128512;28;20092;-38
2022/07/23 01:47:30;;;;;;;0.10;0.10;;;;;;;22.59;54.36;101392.06;5121293;28;20086;-37
2022/07/23 01:49:55;;;;;;;0.10;0.10;;;;;;;22.59;54.29;101389.28;5126793;28;20051;-37
2022/07/23 01:52:21;;;;;;;0.10;0.10;;;;;;;22.60;54.26;101399.25;5127513;28;20043;-39
2022/07/23 01:54:47;;;;;;;0.10;0.10;;;;;;;22.59;54.24;101389.28;5126530;28;20122;-37
2022/07/23 01:57:12;;;;;;;0.10;0.10;;;;;;;22.59;54.05;101392.88;5124263;28;20039;-38
2022/07/23 01:59:39;;;;;;;0.10;0.10;;;;;;;22.58;54.31;101390.38;5127649;28;20047;-37
2022/07/23 02:02:05;;;;;;;0.10;0.10;;;;;;;22.59;54.42;101387.31;5106173;28;20078;-38
2022/07/23 02:04:31;;;;;;;0.20;0.20;;;;;;;22.59;54.36;101394.81;5127252;28;20186;-40
2022/07/23 02:06:57;;;;;;;0.10;0.10;;;;;;;22.59;54.34;101394.81;5125909;28;20058;-39
2022/07/23 02:09:22;;;;;;;0.10;0.10;;;;;;;22.58;54.21;101388.41;5126500;28;20053;-37
2022/07/23 02:11:48;;;;;;;0.10;0.10;;;;;;;22.58;54.38;101388.41;5127947;28;20091;-38
2022/07/23 02:14:14;;;;;;;0.10;0.10;;;;;;;22.58;54.30;101388.41;5125481;28;20049;-37
2022/07/23 02:16:39;;;;;;;0.10;0.10;;;;;;;22.58;54.34;101388.41;5127162;27;20047;-37
2022/07/23 02:19:05;;;;;;;0.10;0.10;;;;;;;22.58;54.33;101393.16;5109902;28;20435;-37
2022/07/23 02:21:31;;;;;;;0.10;0.10;;;;;;;22.58;54.26;101395.91;5124442;28;20494;-37
2022/07/23 02:23:57;;;;;;;0.10;0.10;;;;;;;22.58;54.23;101390.38;5127422;28;20048;-39
2022/07/23 02:26:22;;;;;;;0.10;0.10;;;;;;;22.58;54.18;101382.88;5127878;28;20058;-35
2022/07/23 02:28:48;;;;;;;0.10;0.10;;;;;;;22.58;54.20;101377.31;5124196;27;20051;-37
2022/07/23 02:31:14;;;;;;;0.10;0.10;;;;;;;22.58;54.29;101376.50;5127318;28;20051;-37
2022/07/23 02:33:39;;;;;;;0.10;0.10;;;;;;;22.59;54.38;101378.16;5126846;28;20084;-38
2022/07/23 02:36:05;;;;;;;0.10;0.10;;;;;;;22.58;54.39;101373.72;5127255;28;20158;-38
2022/07/23 02:38:31;;;;;;;0.10;0.10;;;;;;;22.57;54.05;101375.66;5123103;28;20466;-37
2022/07/23 02:40:56;;;;;;;0.10;0.10;;;;;;;22.57;54.31;101381.22;5126982;28;20061;-36
2022/07/23 02:43:22;;;;;;;0.10;0.10;;;;;;;22.58;54.27;101382.03;5121421;28;20047;-36
2022/07/23 02:45:48;;;;;;;0.10;0.10;;;;;;;22.58;54.21;101382.03;5125562;28;20473;-37
2022/07/23 02:48:13;;;;;;;0.10;0.10;;;;;;;22.57;54.33;101378.44;5129696;28;20049;-39
2022/07/23 02:50:39;;;;;;;0.10;0.10;;;;;;;22.58;54.17;101384.81;5125948;28;20047;-39
2022/07/23 02:53:05;;;;;;;0.10;0.10;;;;;;;22.58;54.26;101382.03;5126595;28;20044;-37
2022/07/23 02:55:31;;;;;;;0.10;0.10;;;;;;;22.58;54.28;101380.09;5126509;28;20039;-37
2022/07/23 02:57:56;;;;;;;0.10;0.10;;;;;;;22.58;54.26;101385.66;5127957;28;20046;-37
2022/07/23 03:00:23;;;;;;;0.10;0.10;;;;;;;22.58;54.27;101376.50;5127789;27;20047;-37
2022/07/23 03:02:48;;;;;;;0.10;0.10;;;;;;;22.58;54.28;101374.53;5108188;28;20039;-37
2022/07/23 03:05:14;;;;;;;0.10;0.10;;;;;;;22.58;54.27;101382.03;5127029;28;20111;-37
2022/07/23 03:07:40;;;;;;;0.10;0.10;;;;;;;22.57;54.29;101381.22;5122912;28;20062;-36
2022/07/23 03:10:06;;;;;;;0.10;0.10;;;;;;;22.58;54.26;101387.59;5109730;28;20055;-39
2022/07/23 03:12:31;;;;;;;0.10;0.10;;;;;;;22.58;54.22;101380.09;5126014;28;20039;-35
2022/07/23 03:14:57;;;;;;;0.10;0.10;;;;;;;22.58;54.43;101388.41;5127171;28;20039;-37
2022/07/23 03:17:23;;;;;;;0.10;0.10;;;;;;;22.57;54.46;101384.00;5127549;28;20142;-37
2022/07/23 03:19:48;;;;;;;0.10;0.10;;;;;;;22.58;54.31;101390.38;5129673;28;20255;-37
2022/07/23 03:22:14;;;;;;;0.10;0.10;;;;;;;22.58;54.29;101384.81;5129020;28;20116;-37
2022/07/23 03:24:55;;;;;;;0.10;0.10;;;;;;;22.57;54.30;101389.53;5128408;28;20058;-38
2022/07/23 03:27:22;;;;;;;0.30;0.30;;;;;;;22.58;54.44;101395.91;5124243;28;20109;-39
2022/07/23 03:29:50;;;;;;;0.10;0.10;;;;;;;22.58;54.36;101390.38;5093727;28;20138;-39
2022/07/23 03:32:16;;;;;;;0.10;0.10;;;;;;;22.58;54.27;101390.38;5110731;28;20457;-38
2022/07/23 03:34:42;;;;;;;0.10;0.10;;;;;;;22.58;54.31;101387.59;5126310;28;20050;-39
2022/07/23 03:37:08;;;;;;;0.10;0.10;;;;;;;22.57;54.31;101388.72;5122300;28;20055;-37
2022/07/23 03:39:34;;;;;;;0.10;0.10;;;;;;;22.57;54.22;101384.00;5125267;27;20050;-39
2022/07/23 03:41:59;;;;;;;0.10;0.10;;;;;;;22.57;54.26;101383.16;5127915;27;20084;-39
2022/07/23 03:44:25;;;;;;;0.10;0.10;;;;;;;22.57;54.34;101384.00;5130488;28;20055;-37
2022/07/23 03:46:50;;;;;;;0.10;0.10;;;;;;;22.57;54.34;101389.53;5125630;28;20047;-38
2022/07/23 03:49:16;;;;;;;0.10;0.10;;;;;;;22.57;54.33;101386.78;5128315;28;20134;-37
2022/07/23 03:51:42;;;;;;;0.10;0.10;;;;;;;22.57;54.37;101386.78;5124936;28;20098;-37
2022/07/23 03:54:08;;;;;;;0.10;0.10;;;;;;;22.58;54.35;101385.66;5126905;28;20092;-37
2022/07/23 03:56:34;;;;;;;0.10;0.10;;;;;;;22.57;54.22;101380.41;5129038;28;20080;-37
2022/07/23 03:59:00;;;;;;;0.10;0.10;;;;;;;22.57;54.22;101386.78;5127679;28;20088;-38
2022/07/23 04:01:26;;;;;;;0.20;0.20;;;;;;;22.57;54.31;101391.50;5129848;28;20051;-37
2022/07/23 04:03:52;;;;;;;0.10;0.10;;;;;;;22.56;54.38;101393.44;5108628;28;20054;-39
2022/07/23 04:06:17;;;;;;;0.10;0.10;;;;;;;22.56;54.29;101396.22;5131385;28;20043;-38
2022/07/23 04:08:43;;;;;;;0.10;0.10;;;;;;;22.57;54.26;101399.81;5132060;28;20130;-37
2022/07/23 04:11:09;;;;;;;0.20;0.20;;;;;;;22.58;54.29;101398.69;5128512;28;20041;-37
2022/07/23 04:13:34;;;;;;;0.10;0.10;;;;;;;22.57;54.27;101400.66;5127115;27;20404;-37
2022/07/23 04:16:00;;;;;;;0.13;0.13;;;;;;;22.57;54.38;101402.59;5126968;28;20035;-37
2022/07/23 04:18:26;;;;;;;0.10;0.10;;;;;;;22.57;54.22;101405.38;5128895;28;20068;-39
2022/07/23 04:20:52;;;;;;;0.10;0.10;;;;;;;22.57;54.25;101399.81;5128757;28;20063;-37
2022/07/23 04:23:17;;;;;;;0.10;0.10;;;;;;;22.56;54.23;101404.56;5112532;28;20046;-37
2022/07/23 04:25:45;;;;;;;;;;;;;;;22.57;54.25;101405.38;5129604;28;20469;-37
2022/07/23 04:28:11;;;;;;;0.10;0.10;;;;;;;22.56;54.29;101404.56;5129765;28;19919;-37
2022/07/23 04:30:37;;;;;;;0.10;0.10;;;;;;;22.57;54.34;101408.16;5127642;28;20427;-37
2022/07/23 04:33:06;;;;;;;0.10;0.10;;;;;;;22.56;54.22;101398.19;5130015;28;20122;-37
2022/07/23 04:35:33;;;;;;;0.10;0.10;;;;;;;22.55;54.27;101402.91;5130668;28;20105;-37
2022/07/23 04:37:59;;;;;;;0.10;0.10;;;;;;;22.56;54.20;101412.06;5110492;28;20086;-37
2022/07/23 04:40:25;;;;;;;0.10;0.10;;;;;;;22.56;54.39;101412.88;5125630;28;20070;-38
2022/07/23 04:42:51;;;;;;;0.10;0.10;;;;;;;22.56;54.26;101410.09;5131711;28;20071;-36
2022/07/23 04:45:16;;;;;;;0.10;0.10;;;;;;;22.56;54.29;101425.94;5126145;28;20043;-37
2022/07/23 04:47:42;;;;;;;0.10;0.10;;;;;;;22.56;54.19;101423.97;5124642;28;20039;-39
2022/07/23 04:50:08;;;;;;;0.10;0.10;;;;;;;22.55;54.25;101422.34;5129896;28;20047;-39
2022/07/23 04:52:33;;;;;;;0.10;0.10;;;;;;;22.56;54.22;101425.94;5111528;28;20043;-39
2022/07/23 04:54:59;;;;;;;0.10;0.10;;;;;;;22.57;54.29;101430.38;5127518;28;20043;-38
2022/07/23 04:57:24;;;;;;;0.10;0.10;;;;;;;22.57;54.44;101444.25;5130749;28;20043;-39
2022/07/23 04:59:50;;;;;;;0.10;0.10;;;;;;;22.56;54.21;101454.53;5129986;28;20055;-37
2022/07/23 05:02:16;;;;;;;0.10;0.10;;;;;;;22.56;54.27;101448.13;5111064;28;20088;-37
2022/07/23 05:04:42;;;;;;;0.20;0.20;;;;;;;22.56;54.35;101437.03;5128580;28;20453;-39
2022/07/23 05:07:07;;;;;;;0.10;0.10;;;;;;;22.56;54.39;101437.88;5129625;28;20047;-37
2022/07/23 05:09:34;;;;;;;0.10;0.10;;;;;;;22.57;54.29;101435.91;5125520;28;20043;-39
2022/07/23 05:11:59;;;;;;;0.10;0.10;;;;;;;22.56;54.23;101442.59;5125147;28;20046;-37
2022/07/23 05:14:25;;;;;;;0.10;0.10;;;;;;;22.55;54.45;101450.09;5128310;28;20040;-39
2022/07/23 05:16:51;;;;;;;0.10;0.10;;;;;;;22.56;54.21;101451.75;5129079;28;20043;-37
2022/07/23 05:19:16;;;;;;;0.10;0.10;;;;;;;22.56;54.22;101465.63;5129213;28;20482;-39
2022/07/23 05:21:42;;;;;;;0.10;0.10;;;;;;;22.55;54.22;101452.88;5129384;28;20163;-36
2022/07/23 05:24:08;;;;;;;0.10;0.10;;;;;;;22.56;54.29;101459.25;5131551;28;20541;-39
2022/07/23 05:26:33;;;;;;;0.10;0.10;;;;;;;22.54;54.23;101457.59;5128341;28;20051;-39
2022/07/23 05:28:59;;;;;;;0.10;0.10;;;;;;;22.56;54.32;101460.06;5127415;28;20043;-36
2022/07/23 05:31:24;;;;;;;0.10;0.10;;;;;;;22.55;54.21;101455.66;5128590;28;20099;-39
2022/07/23 05:33:50;;;;;;;0.10;0.10;;;;;;;22.55;54.29;101461.19;5128891;28;20039;-35
2022/07/23 05:36:16;;;;;;;0.10;0.10;;;;;;;22.55;54.28;101466.75;5128032;28;20047;-39
2022/07/23 05:38:42;;;;;;;0.10;0.10;;;;;;;22.54;54.31;101460.38;5127858;28;20051;-39
2022/07/23 05:41:07;;;;;;;0.20;0.20;;;;;;;22.54;54.22;101468.69;5127489;28;20500;-39
2022/07/23 05:43:33;;;;;;;0.10;0.10;;;;;;;22.56;54.20;101475.91;5125912;27;20404;-39
2022/07/23 05:45:59;;;;;;;0.10;0.10;;;;;;;22.56;54.22;101470.34;5128425;28;20051;-39
2022/07/23 05:48:24;;;;;;;0.10;0.10;;;;;;;22.55;54.33;101477.84;5112530;28;20043;-39
2022/07/23 05:50:50;;;;;;;0.10;0.10;;;;;;;22.55;54.39;101475.06;5127965;28;20046;-38
2022/07/23 05:53:16;;;;;;;0.10;0.10;;;;;;;22.55;54.15;101469.53;5127153;28;20131;-37
2022/07/23 05:55:41;;;;;;;0.10;0.10;;;;;;;22.55;54.32;101475.06;5128290;28;20088;-39
2022/07/23 05:58:08;;;;;;;0.10;0.10;;;;;;;22.55;54.57;101480.63;5126216;28;20035;-38
2022/07/23 06:00:34;;;;;;;0.10;0.10;;;;;;;22.55;54.38;101488.97;5126939;28;20081;-37
2022/07/23 06:03:00;;;;;;;0.10;0.10;;;;;;;22.56;54.30;101484.22;5129323;27;20051;-39
2022/07/23 06:05:26;;;;;;;0.10;0.10;;;;;;;22.57;54.19;101491.44;5107870;28;20432;-39
2022/07/23 06:07:52;;;;;;;0.10;0.10;;;;;;;22.56;54.31;101492.56;5129776;28;20039;-39
2022/07/23 06:10:18;;;;;;;0.10;0.10;;;;;;;22.55;54.37;101491.72;5129205;28;20433;-37
2022/07/23 06:12:44;;;;;;;0.10;0.10;;;;;;;22.55;54.32;101497.28;5126041;28;20046;-38
2022/07/23 06:15:10;;;;;;;0.10;0.10;;;;;;;22.55;54.28;101491.72;5129668;28;20043;-37
2022/07/23 06:17:39;;;;;;;0.10;0.10;;;;;;;22.54;54.25;101485.34;5126664;27;20063;-37
2022/07/23 06:20:06;;;;;;;0.10;0.10;;;;;;;22.55;54.21;101483.41;5108759;28;20079;-38
2022/07/23 06:22:32;;;;;;;0.10;0.10;;;;;;;22.54;54.23;101484.53;5111304;28;20067;-37
2022/07/23 06:24:57;;;;;;;0.10;0.10;;;;;;;22.55;54.30;101480.63;5128315;28;20043;-37
2022/07/23 06:27:23;;;;;;;0.10;0.10;;;;;;;22.54;54.27;101490.91;5127600;28;20039;-39
2022/07/23 06:29:52;;;;;;;0.10;0.10;;;;;;;22.56;54.53;101492.56;5126214;28;20054;-37
2022/07/23 06:32:17;;;;;;;0.20;0.20;;;;;;;22.55;54.22;101491.72;5112138;28;20439;-38
2022/07/23 06:34:43;;;;;;;0.10;0.10;;;;;;;22.54;54.42;101487.31;5107091;28;20058;-38
2022/07/23 06:37:13;;;;;;;0.10;0.10;;;;;;;22.55;54.28;101491.72;5123805;28;20050;-39
2022/07/23 06:39:40;;;;;;;0.10;0.10;;;;;;;22.53;54.40;101492.00;5127744;28;20047;-37
2022/07/23 06:42:06;;;;;;;0.10;0.10;;;;;;;22.56;54.25;101495.31;5127114;28;20045;-37
2022/07/23 06:44:32;;;;;;;0.10;0.10;;;;;;;22.54;54.25;101496.47;5129017;27;20058;-36
2022/07/23 06:46:57;;;;;;;0.10;0.10;;;;;;;22.54;54.25;101503.97;5126776;28;20096;-37
2022/07/23 06:49:23;;;;;;;0.10;0.10;;;;;;;22.54;54.34;101503.97;5123742;28;20039;-37
2022/07/23 06:51:49;;;;;;;0.10;0.10;;;;;;;22.54;54.37;101498.41;5122996;28;20047;-38
2022/07/23 06:54:14;;;;;;;0.10;0.10;;;;;;;22.54;54.18;101506.72;5125828;28;20036;-37
2022/07/23 06:56:40;;;;;;;0.10;0.10;;;;;;;22.54;54.19;101496.47;5128073;28;20087;-38
2022/07/23 06:59:06;;;;;;;0.10;0.10;;;;;;;22.54;54.54;101502.00;5129085;28;20047;-38
2022/07/23 07:01:32;;;;;;;0.10;0.10;;;;;;;22.54;54.30;101502.00;5125609;28;20484;-39
2022/07/23 07:03:58;;;;;;;0.10;0.10;;;;;;;22.54;54.36;101510.34;5125998;28;20039;-37
2022/07/23 07:06:23;;;;;;;0.10;0.10;;;;;;;22.55;54.42;101505.59;5124163;28;20062;-37
2022/07/23 07:08:50;;;;;;;0.10;0.10;;;;;;;22.54;54.33;101506.72;5106424;28;20043;-39
2022/07/23 07:11:16;;;;;;;0.10;0.10;;;;;;;22.54;54.37;101501.19;5125009;28;20043;-37
2022/07/23 07:13:41;;;;;;;0.10;0.10;;;;;;;22.54;54.34;101507.56;5123216;27;20115;-37
2022/07/23 07:16:07;;;;;;;0.10;0.10;;;;;;;22.54;54.20;101512.28;5128237;28;20421;-39
2022/07/23 07:18:33;;;;;;;0.10;0.10;;;;;;;22.53;54.30;101514.22;5132472;28;20046;-37
2022/07/23 07:20:58;;;;;;;0.10;0.10;;;;;;;22.53;54.30;101514.22;5128158;28;20537;-36
2022/07/23 07:23:24;;;;;;;0.10;0.10;;;;;;;22.54;54.27;101518.66;5112460;28;20039;-37
2022/07/23 07:25:50;;;;;;;0.10;0.10;;;;;;;22.53;54.24;101513.38;5128266;28;20086;-36
2022/07/23 07:28:15;;;;;;;0.10;0.10;;;;;;;22.53;54.43;101519.75;5132618;28;20053;-37
2022/07/23 07:30:42;;;;;;;0.10;0.10;;;;;;;22.54;54.37;101520.63;5109375;28;20046;-37
2022/07/23 07:33:08;;;;;;;0.10;0.10;;;;;;;22.54;54.31;101527.00;5131590;28;20039;-37
2022/07/23 07:35:33;;;;;;;0.10;0.10;;;;;;;22.54;54.39;101523.38;5130734;28;20047;-37
2022/07/23 07:37:59;;;;;;;0.10;0.10;;;;;;;22.53;54.32;101522.53;5128342;28;20058;-38
2022/07/23 07:40:25;;;;;;;0.10;0.10;;;;;;;22.53;54.32;101528.09;5130273;28;20082;-38
2022/07/23 07:42:57;;;;;;;0.10;0.10;;;;;;;22.53;54.25;101525.31;5113322;27;20070;-37
2022/07/23 07:45:24;;;;;;;0.10;0.10;;;;;;;22.53;54.32;101524.47;5112019;28;20043;-39
2022/07/23 07:47:51;;;;;;;0.10;0.10;;;;;;;22.54;54.21;101527.00;5130346;28;20473;-39
2022/07/23 07:50:17;;;;;;;0.10;0.10;;;;;;;22.54;54.32;101528.94;5110470;28;20101;-39
2022/07/23 07:52:42;;;;;;;0.10;0.10;;;;;;;22.53;54.31;101527.25;5131303;28;20409;-37
2022/07/23 07:55:09;;;;;;;0.10;0.10;;;;;;;22.54;54.37;101526.16;5129514;28;20112;-37
2022/07/23 07:57:35;;;;;;;0.10;0.10;;;;;;;22.54;54.24;101526.16;5127509;28;20074;-38
2022/07/23 08:00:04;;;;;;;0.10;0.10;;;;;;;22.54;54.30;101534.50;5111666;28;20508;-37
2022/07/23 08:02:44;;;;;;;0.10;0.10;;;;;;;22.54;54.29;101538.09;5130899;28;20047;-38
2022/07/23 08:05:10;;;;;;;0.10;0.10;;;;;;;22.53;54.32;101536.41;5109452;28;20080;-39
2022/07/23 08:07:37;;;;;;;0.10;0.10;;;;;;;22.53;54.33;101541.13;5125295;28;20051;-37
2022/07/23 08:10:03;;;;;;;0.10;0.10;;;;;;;22.53;54.39;101541.97;5109324;28;20083;-37
2022/07/23 08:12:45;;;;;;;0.10;0.10;;;;;;;22.53;54.33;101541.97;5129173;28;20043;-37
2022/07/23 08:15:13;;;;;;;0.10;0.10;;;;;;;22.53;54.31;101555.84;5108993;28;20049;-38
2022/07/23 08:17:41;;;;;;;0.10;0.10;;;;;;;22.54;54.34;101545.59;5128330;28;20051;-37
2022/07/23 08:20:07;;;;;;;0.10;0.10;;;;;;;22.54;54.34;101551.16;5126563;28;20035;-37
2022/07/23 08:22:51;;;;;;;0.10;0.10;;;;;;;22.53;54.31;101553.06;5110461;28;20046;-38
2022/07/23 08:25:21;;;;;;;0.10;0.10;;;;;;;22.54;54.22;101549.19;5111177;28;20180;-38
2022/07/23 08:27:47;;;;;;;0.10;0.10;;;;;;;22.53;54.39;101561.41;5129794;28;20075;-38
2022/07/23 08:30:12;;;;;;;0.10;0.10;;;;;;;22.53;54.49;101561.41;5127270;28;20077;-39
2022/07/23 08:33:00;;;;;;;0.10;0.10;;;;;;;22.54;54.31;101551.16;5125710;28;20406;-36
2022/07/23 08:35:35;;;;;;;0.10;0.10;;;;;;;22.54;54.46;101559.47;5117357;28;20078;-39
2022/07/23 08:38:03;;;;;;;0.10;0.10;;;;;;;22.53;54.34;101560.56;5111324;28;20086;-38
2022/07/23 08:40:32;;;;;;;0.10;0.10;;;;;;;22.53;54.27;101557.78;5129293;28;20134;-37
2022/07/23 08:42:57;;;;;;;;;;;;;;;22.53;54.21;101560.56;5112138;27;20067;-38
2022/07/23 08:45:24;;;;;;;0.10;0.10;;;;;;;22.53;54.41;101568.91;5127388;28;20071;-37
2022/07/23 08:47:54;;;;;;;0.20;0.20;;;;;;;22.54;54.31;101565.03;5107678;28;20568;-37
2022/07/23 08:50:20;;;;;;;0.10;0.10;;;;;;;22.54;54.34;101565.03;5109436;28;20514;-39
2022/07/23 08:52:48;;;;;;;0.10;0.10;;;;;;;22.53;54.39;101563.34;5125747;28;20508;-38
2022/07/23 08:55:16;;;;;;;0.10;0.10;;;;;;;22.54;54.23;101573.34;5128761;28;20473;-37
2022/07/23 08:57:42;;;;;;;0.10;0.10;;;;;;;22.53;54.03;101569.72;5126423;28;20059;-36
2022/07/23 09:00:08;;;;;;;0.10;0.10;;;;;;;22.54;54.32;101571.41;5127967;28;20057;-39
2022/07/23 09:02:42;;;;;;;0.10;0.10;;;;;;;22.53;54.25;101575.28;5111998;28;20079;-37
2022/07/23 09:05:10;;;;;;;0.10;0.10;;;;;;;22.53;54.26;101575.28;5094690;28;20505;-39
2022/07/23 09:07:35;;;;;;;0.10;0.10;;;;;;;22.54;54.12;101570.56;5109343;28;20087;-39
2022/07/23 09:10:07;;;;;;;0.10;0.10;;;;;;;22.53;54.37;101566.94;5129753;28;20503;-39
2022/07/23 09:12:33;;;;;;;0.10;0.10;;;;;;;22.53;54.37;101572.50;5111032;28;20093;-38
2022/07/23 09:15:05;;;;;;;0.15;0.15;;;;;;;22.53;54.31;101568.91;5126174;27;20413;-35
2022/07/23 09:17:37;;;;;;;0.10;0.10;;;;;;;22.54;54.28;101567.81;5126568;28;20385;-37
2022/07/23 09:20:13;;;;;;;0.10;0.10;;;;;;;22.53;54.49;101566.94;5126477;28;20078;-37
2022/07/23 09:22:45;;;;;;;0.10;0.10;;;;;;;22.53;54.51;101571.66;5130457;28;20052;-37
2022/07/23 09:25:15;;;;;;;0.10;0.10;;;;;;;22.53;54.24;101566.13;5126302;28;20077;-35
2022/07/23 09:28:02;;;;;;;0.10;0.10;;;;;;;22.53;54.43;101572.50;5107695;28;20039;-37
2022/07/23 09:30:31;;;;;;;0.15;0.15;;;;;;;22.53;54.30;101582.78;5127780;28;20066;-40
2022/07/23 09:33:15;;;;;;;0.10;0.10;;;;;;;22.53;54.16;101580.81;5125599;27;20184;-38
2022/07/23 09:35:50;;;;;;;0.10;0.10;;;;;;;22.53;54.56;101578.03;5111512;28;20071;-37
2022/07/23 09:38:17;;;;;;;0.10;0.10;;;;;;;22.54;54.37;101581.69;5108767;28;20095;-39
2022/07/23 09:40:43;;;;;;;0.10;0.10;;;;;;;22.53;54.34;101583.59;5125702;28;20067;-39
2022/07/23 09:43:09;;;;;;;0.10;0.10;;;;;;;22.52;54.25;101573.63;5128177;27;20058;-39
2022/07/23 09:45:35;;;;;;;0.10;0.10;;;;;;;22.53;54.28;101575.28;5109275;28;20047;-37
2022/07/23 09:48:16;;;;;;;0.10;0.10;;;;;;;22.54;54.24;101592.78;5127146;28;20054;-37
2022/07/23 09:50:43;;;;;;;0.10;0.10;;;;;;;22.53;54.34;101586.38;5127427;28;20078;-37
2022/07/23 09:53:09;;;;;;;0.10;0.10;;;;;;;22.54;54.46;101587.22;5127122;28;20046;-37
2022/07/23 09:55:38;;;;;;;0.10;0.10;;;;;;;22.53;54.36;101580.81;5111341;28;20092;-38
2022/07/23 09:58:06;;;;;;;0.10;0.10;;;;;;;22.53;54.28;101586.38;5127951;28;20066;-37
2022/07/23 10:00:32;;;;;;;0.10;0.10;;;;;;;22.53;54.26;101577.22;5127506;28;20448;-38
2022/07/23 10:02:58;;;;;;;0.10;0.10;;;;;;;22.53;54.33;101575.28;5129493;28;20070;-39
2022/07/23 10:05:25;;;;;;;0.10;0.10;;;;;;;22.53;54.26;101578.03;5129634;28;20043;-38
2022/07/23 10:07:51;;;;;;;0.10;0.10;;;;;;;22.54;54.14;101584.47;5127349;28;20071;-39
2022/07/23 10:10:21;;;;;;;0.10;0.10;;;;;;;22.53;54.28;101575.28;5126336;28;20124;-39
2022/07/23 10:15:32;;;;;;;0.10;0.10;;;;;;;22.53;54.25;101563.34;5110534;28;20183;-39
2022/07/23 10:17:58;;;;;;;0.10;0.10;;;;;;;22.53;54.45;101564.16;5125372;28;20474;-38
2022/07/23 10:20:24;;;;;;;0.10;0.10;;;;;;;22.54;54.26;101565.03;5127033;28;20055;-39
2022/07/23 10:23:15;;;;;;;0.10;0.10;;;;;;;22.54;54.27;101560.31;5128643;28;20069;-37
2022/07/23 10:25:48;;;;;;;0.10;0.10;;;;;;;22.53;54.18;101561.41;5115220;28;20066;-38
2022/07/23 10:28:43;;;;;;;0.10;0.10;;;;;;;22.53;54.34;101558.63;5126471;28;20071;-38
2022/07/23 10:31:31;;;;;;;0.10;0.10;;;;;;;22.53;54.45;101555.84;5112531;28;20495;-37
2022/07/23 10:34:41;;;;;;;0.10;0.10;;;;;;;22.53;54.28;101547.50;5084170;28;20039;-39
2022/07/23 10:37:18;;;;;;;0.10;0.10;;;;;;;22.52;54.43;101559.75;5113542;28;20126;-38
2022/07/23 10:39:47;;;;;;;0.10;0.10;;;;;;;22.52;54.33;101556.97;5124949;28;20427;-38
2022/07/23 10:42:15;;;;;;;0.10;0.10;;;;;;;22.53;54.45;101561.41;5127874;28;20091;-37
2022/07/23 10:44:45;;;;;;;0.10;0.10;;;;;;;22.53;54.34;101553.06;5124361;27;20478;-37
2022/07/23 10:47:42;;;;;;;0.10;0.10;;;;;;;22.53;54.34;101563.34;5104127;28;20066;-37
2022/07/23 10:50:20;;;;;;;0.10;0.10;;;;;;;22.53;54.38;101561.41;5107659;28;20097;-38
2022/07/23 10:55:49;;;;;;;0.10;0.10;;;;;;;22.53;54.29;101555.00;5168465;27;20194;-39
2022/07/23 10:58:20;;;;;;;0.10;0.10;;;;;;;22.53;54.32;101558.63;5134253;27;20077;-41
2022/07/23 11:00:47;;;;;;;0.10;0.10;;;;;;;22.53;54.37;101553.06;5131615;27;20460;-39
2022/07/23 11:03:32;;;;;;;0.10;0.10;;;;;;;22.53;54.47;101549.47;5155760;27;20043;-38
2022/07/23 11:05:57;;;;;;;0.10;0.10;;;;;;;22.53;54.45;101544.75;5133405;27;20121;-37
2022/07/23 11:08:23;;;;;;;0.10;0.10;;;;;;;22.54;54.42;101556.69;5155553;27;20129;-35
2022/07/23 11:13:32;;;;;;;0.10;0.10;;;;;;;22.53;54.61;101553.06;5162033;27;20125;-37
2022/07/23 11:24:13;;;;;;;0.10;0.10;;;;;;;22.53;54.41;101555.00;5175969;27;20237;-39
2022/07/23 11:26:50;;;;;;;0.10;0.10;;;;;;;22.53;54.33;101561.41;5121443;27;20073;-39
2022/07/23 11:32:19;;;;;;;0.10;0.10;;;;;;;22.52;54.41;101554.19;5166628;27;20217;-38
2022/07/23 11:34:46;;;;;;;0.10;0.10;;;;;;;22.54;54.28;101565.03;5162758;27;20074;-39
2022/07/23 11:37:27;;;;;;;0.10;0.10;;;;;;;22.54;54.48;101563.06;5161581;27;20074;-39
2022/07/23 11:39:55;;;;;;;0.10;0.10;;;;;;;22.53;54.32;101566.94;5146265;27;20066;-38
2022/07/23 11:42:20;;;;;;;0.10;0.10;;;;;;;22.53;54.41;101555.84;5144931;27;20046;-38
2022/07/23 11:44:46;;;;;;;0.10;0.10;;;;;;;22.53;54.37;101558.63;5146440;27;20043;-38
2022/07/23 11:47:14;;;;;;;;;;;;;;;22.53;54.36;101555.84;5142005;27;20046;-39